createdAt,value
2019-05-15T00:00:38.444Z,101025.61
2019-05-15T00:03:04.986Z,101020.83
2019-05-15T00:05:31.760Z,101026.87
2019-05-15T00:07:59.282Z,101023.08
2019-05-15T00:10:26.165Z,101017.16
2019-05-15T00:12:52.842Z,101033.80
2019-05-15T00:15:19.634Z,101018.10
2019-05-15T00:17:48.580Z,101019.59
2019-05-15T00:20:15.214Z,101014.55
2019-05-15T00:22:41.785Z,101017.45
2019-05-15T00:25:09.348Z,101020.02
2019-05-15T00:27:38.606Z,101011.81
2019-05-15T00:30:05.902Z,101010.65
2019-05-15T00:32:32.474Z,101009.27
2019-05-15T00:34:59.367Z,101007.63
2019-05-15T00:37:25.942Z,100997.70
2019-05-15T00:39:52.640Z,100994.89
2019-05-15T00:42:19.525Z,100994.64
2019-05-15T00:44:46.351Z,100992.52
2019-05-15T00:47:13.138Z,100996.30
2019-05-15T00:49:39.816Z,100987.81
2019-05-15T00:52:11.771Z,100984.70
2019-05-15T00:54:35.392Z,100980.63
2019-05-15T00:57:02.204Z,100980.28
2019-05-15T00:59:29.947Z,100977.84
2019-05-15T01:01:59.298Z,100983.65
2019-05-15T01:04:27.961Z,100985.87
2019-05-15T01:06:54.307Z,100986.60
2019-05-15T01:09:23.584Z,100983.57
2019-05-15T01:11:50.371Z,100985.52
2019-05-15T01:14:18.617Z,100983.27
2019-05-15T01:16:45.605Z,100981.20
2019-05-15T01:19:14.990Z,100978.95
2019-05-15T01:21:40.889Z,100985.12
2019-05-15T01:24:08.435Z,100976.64
2019-05-15T01:26:35.287Z,100979.02
2019-05-15T01:29:02.084Z,100982.54
2019-05-15T01:31:28.793Z,100989.38
2019-05-15T01:33:55.465Z,100981.88
2019-05-15T01:36:22.305Z,100980.58
2019-05-15T01:38:49.012Z,100982.48
2019-05-15T01:41:15.719Z,100975.64
2019-05-15T01:43:42.530Z,100974.00
2019-05-15T01:46:09.125Z,100973.55
2019-05-15T01:48:35.919Z,100974.94
2019-05-15T01:51:04.498Z,100972.05
2019-05-15T01:53:31.097Z,100964.86
2019-05-15T01:55:58.930Z,100962.73
2019-05-15T01:58:25.825Z,100967.22
2019-05-15T02:00:52.505Z,100966.30
2019-05-15T02:03:19.280Z,100962.83
2019-05-15T02:05:48.063Z,100960.84
2019-05-15T02:08:14.848Z,100961.20
2019-05-15T02:10:41.505Z,100957.09
2019-05-15T02:13:08.759Z,100961.28
2019-05-15T02:15:35.719Z,100956.50
2019-05-15T02:18:02.510Z,100962.58
2019-05-15T02:20:29.301Z,100956.90
2019-05-15T02:22:55.975Z,100957.92
2019-05-15T02:25:22.650Z,100953.88
2019-05-15T02:27:49.342Z,100948.01
2019-05-15T02:30:27.996Z,100956.33
2019-05-15T02:32:44.800Z,100952.17
2019-05-15T02:35:11.577Z,100956.39
2019-05-15T02:37:41.152Z,100957.84
2019-05-15T02:40:09.872Z,100958.10
2019-05-15T02:42:35.830Z,100951.27
2019-05-15T02:45:02.882Z,100951.44
2019-05-15T02:47:29.662Z,100948.61
2019-05-15T02:49:59.125Z,100954.84
2019-05-15T02:52:25.147Z,100955.69
2019-05-15T02:54:51.911Z,100945.02
2019-05-15T02:57:19.266Z,100946.73
2019-05-15T02:59:49.532Z,100951.80
2019-05-15T03:02:15.242Z,100949.25
2019-05-15T03:04:42.045Z,100949.61
2019-05-15T03:07:09.614Z,100948.02
2019-05-15T03:09:39.704Z,100942.75
2019-05-15T03:12:05.449Z,100946.30
2019-05-15T03:14:32.288Z,100945.61
2019-05-15T03:16:59.726Z,100940.97
2019-05-15T03:19:29.531Z,100951.01
2019-05-15T03:21:55.365Z,100945.29
2019-05-15T03:24:22.033Z,100941.25
2019-05-15T03:26:49.621Z,100956.81
2019-05-15T03:29:16.635Z,100950.74
2019-05-15T03:32:00.875Z,100956.70
2019-05-15T03:34:21.402Z,100960.31
2019-05-15T03:36:45.454Z,100958.91
2019-05-15T03:39:09.771Z,100955.58
2019-05-15T03:41:39.308Z,100953.88
2019-05-15T03:44:05.373Z,100952.03
2019-05-15T03:46:32.048Z,100951.99
2019-05-15T03:49:00.353Z,100956.63
2019-05-15T03:51:29.006Z,100947.12
2019-05-15T03:53:55.908Z,100953.59
2019-05-15T03:56:22.675Z,100953.81
2019-05-15T03:58:49.609Z,100955.80
2019-05-15T04:01:32.532Z,100956.14
2019-05-15T04:03:45.013Z,100946.10
2019-05-15T04:06:11.827Z,100954.68
2019-05-15T04:08:39.376Z,100954.68
2019-05-15T04:11:08.894Z,100955.80
2019-05-15T04:13:35.010Z,100954.18
2019-05-15T04:16:01.872Z,100951.80
2019-05-15T04:18:29.293Z,100948.80
2019-05-15T04:20:56.142Z,100942.78
2019-05-15T04:23:22.990Z,100943.91
2019-05-15T04:25:51.157Z,100949.67
2019-05-15T04:28:20.091Z,100955.00
2019-05-15T04:30:49.465Z,100954.53
2019-05-15T04:33:15.751Z,100955.80
2019-05-15T04:35:42.421Z,100956.97
2019-05-15T04:38:09.699Z,100966.67
2019-05-15T04:40:39.714Z,100967.69
2019-05-15T04:43:05.390Z,100972.33
2019-05-15T04:45:35.156Z,100967.33
2019-05-15T04:48:00.963Z,100964.86
2019-05-15T04:50:28.709Z,100973.41
2019-05-15T04:52:59.032Z,100973.14
2019-05-15T04:55:24.311Z,100969.13
2019-05-15T04:57:51.122Z,100970.67
2019-05-15T05:00:35.659Z,100973.08
2019-05-15T05:03:02.641Z,100974.52
2019-05-15T05:05:29.711Z,100985.14
2019-05-15T05:07:59.601Z,100979.14
2019-05-15T05:10:28.394Z,100979.31
2019-05-15T05:12:54.443Z,100983.95
2019-05-15T05:15:21.635Z,100981.94
2019-05-15T05:17:49.006Z,100984.20
2019-05-15T05:20:17.856Z,100984.69
2019-05-15T05:22:44.676Z,100985.02
2019-05-15T05:25:11.361Z,100977.83
2019-05-15T05:27:38.576Z,100976.09
2019-05-15T05:30:08.161Z,100970.88
2019-05-15T05:32:35.288Z,100963.23
2019-05-15T05:35:02.882Z,100966.71
2019-05-15T05:37:29.463Z,100961.91
2019-05-15T05:39:57.726Z,100966.13
2019-05-15T05:42:24.551Z,100962.84
2019-05-15T05:44:51.262Z,100962.97
2019-05-15T05:47:18.350Z,100963.23
2019-05-15T05:50:04.749Z,100965.17
2019-05-15T05:52:31.512Z,100965.62
2019-05-15T05:54:58.341Z,100961.53
2019-05-15T05:57:25.007Z,100963.81
2019-05-15T05:59:51.708Z,100966.44
2019-05-15T06:02:18.671Z,100959.94
2019-05-15T06:04:47.816Z,100953.23
2019-05-15T06:07:14.518Z,100952.84
2019-05-15T06:09:41.310Z,100956.69
2019-05-15T06:12:08.091Z,100953.56
2019-05-15T06:14:34.776Z,100955.29
2019-05-15T06:17:01.447Z,100959.80
2019-05-15T06:19:31.227Z,100951.73
2019-05-15T06:22:00.731Z,100955.98
2019-05-15T06:24:25.209Z,100962.36
2019-05-15T06:26:51.878Z,100956.36
2019-05-15T06:29:18.696Z,100962.25
2019-05-15T06:31:45.484Z,100953.94
2019-05-15T06:34:12.276Z,100947.17
2019-05-15T06:36:39.394Z,100953.73
2019-05-15T06:39:08.446Z,100950.71
2019-05-15T06:41:35.147Z,100951.31
2019-05-15T06:44:02.198Z,100951.02
2019-05-15T06:46:28.900Z,100945.53
2019-05-15T06:48:57.703Z,100941.69
2019-05-15T06:51:24.558Z,100938.91
2019-05-15T06:53:51.123Z,100936.62
2019-05-15T06:56:18.816Z,100937.25
2019-05-15T06:58:45.702Z,100938.45
2019-05-15T07:01:12.582Z,100934.03
2019-05-15T07:03:39.649Z,100934.83
2019-05-15T07:06:09.062Z,100933.14
2019-05-15T07:08:34.937Z,100945.20
2019-05-15T07:11:01.737Z,100948.75
2019-05-15T07:13:29.165Z,100939.77
2019-05-15T07:15:58.372Z,100929.67
2019-05-15T07:18:24.740Z,100933.13
2019-05-15T07:20:51.526Z,100935.47
2019-05-15T07:23:18.860Z,100924.02
2019-05-15T07:25:45.902Z,100930.44
2019-05-15T07:28:12.568Z,100920.08
2019-05-15T07:30:41.099Z,100912.02
2019-05-15T07:33:08.747Z,100923.05
2019-05-15T07:35:38.454Z,100927.55
2019-05-15T07:38:07.843Z,100921.39
2019-05-15T07:40:34.193Z,100916.13
2019-05-15T07:43:01.064Z,100908.97
2019-05-15T07:45:28.341Z,100913.54
2019-05-15T07:47:55.216Z,100900.47
2019-05-15T07:50:22.099Z,100907.54
2019-05-15T07:52:48.879Z,100901.39
2019-05-15T07:55:18.322Z,100896.16
2019-05-15T07:57:44.334Z,100900.44
2019-05-15T08:00:13.310Z,100896.34
2019-05-15T08:02:40.071Z,100896.72
2019-05-15T08:05:09.056Z,100901.37
2019-05-15T08:07:38.593Z,100893.78
2019-05-15T08:10:05.281Z,100893.95
2019-05-15T08:12:32.042Z,100893.50
2019-05-15T08:14:58.755Z,100887.69
2019-05-15T08:17:25.522Z,100884.95
2019-05-15T08:19:52.292Z,100889.14
2019-05-15T08:22:18.976Z,100895.09
2019-05-15T08:24:48.278Z,100885.94
2019-05-15T08:27:14.335Z,100876.77
2019-05-15T08:29:41.227Z,100875.34
2019-05-15T08:32:08.479Z,100881.27
2019-05-15T08:34:35.324Z,100887.45
2019-05-15T08:37:01.920Z,100879.62
2019-05-15T08:39:28.630Z,100868.66
2019-05-15T08:41:55.315Z,100868.86
2019-05-15T08:44:22.167Z,100861.66
2019-05-15T08:46:48.758Z,100857.43
2019-05-15T08:49:15.482Z,100851.71
2019-05-15T08:51:42.171Z,100859.93
2019-05-15T08:54:08.848Z,100858.67
2019-05-15T08:56:55.474Z,100854.34
2019-05-15T08:59:22.244Z,100844.36
2019-05-15T09:01:49.136Z,100850.99
2019-05-15T09:04:27.889Z,100854.17
2019-05-15T09:06:44.727Z,100848.27
2019-05-15T09:09:11.400Z,100850.19
2019-05-15T09:11:39.170Z,100836.55
2019-05-15T09:14:08.163Z,100833.98
2019-05-15T09:16:34.866Z,100824.80
2019-05-15T09:19:01.805Z,100827.52
2019-05-15T09:21:28.676Z,100821.62
2019-05-15T09:23:55.339Z,100813.87
2019-05-15T09:26:22.251Z,100821.66
2019-05-15T09:28:49.500Z,100804.40
2019-05-15T09:31:16.239Z,100810.72
2019-05-15T09:33:44.875Z,100804.59
2019-05-15T09:36:11.576Z,100804.59
2019-05-15T09:38:39.073Z,100809.37
2019-05-15T09:41:08.676Z,100814.69
2019-05-15T09:43:34.851Z,100803.17
2019-05-15T09:46:01.649Z,100790.53
2019-05-15T09:48:28.855Z,100797.27
2019-05-15T09:50:58.516Z,100791.52
2019-05-15T09:53:24.571Z,100791.47
2019-05-15T09:55:51.347Z,100784.87
2019-05-15T09:58:20.382Z,100778.59
2019-05-15T10:00:52.273Z,100763.50
2019-05-15T10:03:15.668Z,100779.03
2019-05-15T10:05:42.585Z,100788.73
2019-05-15T10:08:09.403Z,100782.66
2019-05-15T10:10:38.016Z,100779.46
2019-05-15T10:13:05.041Z,100763.11
2019-05-15T10:15:31.806Z,100778.85
2019-05-15T10:17:59.686Z,100770.38
2019-05-15T10:20:28.954Z,100772.54
2019-05-15T10:22:55.497Z,100775.77
2019-05-15T10:25:22.266Z,100765.98
2019-05-15T10:27:49.075Z,100763.94
2019-05-15T10:30:18.687Z,100769.92
2019-05-15T10:32:44.777Z,100776.02
2019-05-15T10:35:24.542Z,100765.44
2019-05-15T10:37:40.441Z,100756.16
2019-05-15T10:40:09.263Z,100747.19
2019-05-15T10:42:36.119Z,100747.19
2019-05-15T10:45:04.168Z,100739.23
2019-05-15T10:47:30.869Z,100749.70
2019-05-15T10:49:59.942Z,100743.22
2019-05-15T10:52:28.593Z,100733.14
2019-05-15T10:54:54.862Z,100729.27
2019-05-15T10:57:21.696Z,100731.52
2019-05-15T10:59:48.273Z,100724.82
2019-05-15T11:02:15.051Z,100719.55
2019-05-15T11:04:41.741Z,100722.23
2019-05-15T11:07:09.810Z,100713.91
2019-05-15T11:09:37.514Z,100713.30
2019-05-15T11:12:05.817Z,100712.80
2019-05-15T11:14:32.588Z,100701.27
2019-05-15T11:16:59.273Z,100715.09
2019-05-15T11:19:35.615Z,100715.09
2019-05-15T11:21:54.432Z,100694.44
2019-05-15T11:24:21.135Z,100686.89
2019-05-15T11:26:49.971Z,100672.98
2019-05-15T11:29:16.684Z,100678.69
2019-05-15T11:31:43.361Z,100673.11
2019-05-15T11:34:10.262Z,100672.73
2019-05-15T11:36:38.692Z,100682.81
2019-05-15T11:39:08.237Z,100683.75
2019-05-15T11:41:34.629Z,100682.01
2019-05-15T11:44:01.497Z,100666.15
2019-05-15T11:46:29.089Z,100658.16
2019-05-15T11:48:58.685Z,100648.34
2019-05-15T11:51:24.726Z,100668.34
2019-05-15T11:53:51.465Z,100655.38
2019-05-15T11:56:18.910Z,100663.02
2019-05-15T11:58:45.809Z,100655.16
2019-05-15T12:01:12.602Z,100652.93
2019-05-15T12:03:59.067Z,100645.73
2019-05-15T12:06:25.813Z,100643.79
2019-05-15T12:08:52.517Z,100638.53
2019-05-15T12:11:31.849Z,100644.70
2019-05-15T12:13:48.117Z,100646.66
2019-05-15T12:16:14.782Z,100643.08
2019-05-15T12:18:41.985Z,100640.30
2019-05-15T12:21:08.996Z,100608.10
2019-05-15T12:23:38.105Z,100626.71
2019-05-15T12:26:04.478Z,100629.70
2019-05-15T12:28:31.098Z,100621.06
2019-05-15T12:30:59.674Z,100614.89
2019-05-15T12:33:28.923Z,100602.70
2019-05-15T12:35:55.190Z,100601.89
2019-05-15T12:38:21.892Z,100609.70
2019-05-15T13:00:38.867Z,100584.92
2019-05-15T13:03:05.543Z,100592.17
2019-05-15T13:05:32.701Z,100567.23
2019-05-15T13:07:59.563Z,100596.86
2019-05-15T13:10:28.611Z,100585.52
2019-05-15T13:13:01.341Z,100574.72
2019-05-15T13:15:23.563Z,100582.58
2019-05-15T13:17:52.627Z,100568.58
2019-05-15T13:20:19.044Z,100576.78
2019-05-15T13:25:14.308Z,100562.52
2019-05-15T13:27:41.094Z,100562.52
2019-05-15T13:30:09.210Z,100556.70
2019-05-15T13:32:36.425Z,100562.69
2019-05-15T13:35:04.044Z,100553.09
2019-05-15T13:37:31.158Z,100538.11
2019-05-15T13:39:58.696Z,100557.21
2019-05-15T13:42:27.938Z,100542.48
2019-05-15T13:44:54.276Z,100538.69
2019-05-15T13:47:20.950Z,100546.82
2019-05-15T13:49:48.135Z,100545.19
2019-05-15T13:52:15.019Z,100540.20
2019-05-15T13:54:41.717Z,100533.17
2019-05-15T13:57:08.899Z,100532.83
2019-05-15T13:59:35.579Z,100538.17
2019-05-15T14:02:02.372Z,100554.89
2019-05-15T14:04:29.910Z,100550.23
2019-05-15T14:06:57.852Z,100556.22
2019-05-15T14:09:24.654Z,100545.87
2019-05-15T14:11:51.405Z,100534.59
2019-05-15T14:14:18.191Z,100538.08
2019-05-15T14:16:44.964Z,100530.43
2019-05-15T14:19:11.742Z,100530.44
2019-05-15T14:21:38.528Z,100529.78
2019-05-15T14:24:05.307Z,100524.48
2019-05-15T14:26:32.500Z,100518.59
2019-05-15T14:28:59.187Z,100522.44
2019-05-15T14:31:27.900Z,100519.54
2019-05-15T14:33:54.461Z,100510.53
2019-05-15T14:36:21.301Z,100523.70
2019-05-15T14:38:48.524Z,100527.28
2019-05-15T14:41:15.587Z,100530.09
2019-05-15T14:43:43.506Z,100527.41
2019-05-15T14:46:10.059Z,100536.52
2019-05-15T14:48:38.593Z,100518.62
2019-05-15T14:51:05.415Z,100525.55
2019-05-15T14:53:32.190Z,100510.65
2019-05-15T14:56:20.463Z,100509.67
2019-05-15T14:58:48.058Z,100506.90
2019-05-15T15:01:15.098Z,100509.03
2019-05-15T15:03:41.779Z,100509.74
2019-05-15T15:06:08.802Z,100510.07
2019-05-15T15:08:35.495Z,100510.54
2019-05-15T15:11:02.448Z,100518.30
2019-05-15T15:13:29.398Z,100516.25
2019-05-15T15:15:56.191Z,100509.16
2019-05-15T15:20:49.273Z,100499.53
2019-05-15T15:23:15.925Z,100497.72
2019-05-15T15:25:42.499Z,100488.13
2019-05-15T15:28:09.051Z,100489.83
2019-05-15T15:30:37.775Z,100491.03
2019-05-15T15:33:04.527Z,100489.52
2019-05-15T15:35:31.336Z,100487.23
2019-05-15T15:37:58.161Z,100500.02
2019-05-15T15:40:24.914Z,100496.00
2019-05-15T15:42:51.479Z,100491.42
2019-05-15T15:45:19.342Z,100493.56
2019-05-15T15:47:48.087Z,100490.77
2019-05-15T15:50:18.104Z,100496.16
2019-05-15T15:52:44.463Z,100492.56
2019-05-15T15:55:11.625Z,100490.34
2019-05-15T15:57:39.847Z,100499.53
2019-05-15T16:00:08.830Z,100491.36
2019-05-15T16:02:35.788Z,100491.08
2019-05-15T16:05:02.726Z,100486.02
2019-05-15T16:07:29.830Z,100479.98
2019-05-15T16:09:58.755Z,100481.27
2019-05-15T16:12:27.690Z,100482.30
2019-05-15T16:14:54.119Z,100496.91
2019-05-15T16:17:28.479Z,100497.95
2019-05-15T16:19:54.698Z,100485.73
2019-05-15T16:22:21.525Z,100490.36
2019-05-15T16:25:09.819Z,100489.06
2019-05-15T16:27:38.247Z,100492.50
2019-05-15T16:30:08.299Z,100480.94
2019-05-15T16:32:34.611Z,100481.30
2019-05-15T16:35:01.200Z,100487.09
2019-05-15T16:37:28.329Z,100478.98
2019-05-15T16:39:57.812Z,100467.57
2019-05-15T16:42:23.992Z,100474.80
2019-05-15T16:44:50.567Z,100471.19
2019-05-15T16:47:18.599Z,100467.03
2019-05-15T16:49:45.324Z,100461.97
2019-05-15T16:52:12.120Z,100468.55
2019-05-15T16:54:38.770Z,100469.00
2019-05-15T16:57:05.592Z,100466.20
2019-05-15T16:59:35.790Z,100463.42
2019-05-15T17:02:00.947Z,100455.25
2019-05-15T17:04:28.800Z,100455.50
2019-05-15T17:06:55.709Z,100452.72
2019-05-15T17:09:22.539Z,100450.43
2019-05-15T17:11:49.330Z,100452.91
2019-05-15T17:14:16.002Z,100452.91
2019-05-15T17:16:42.850Z,100456.52
2019-05-15T17:19:09.606Z,100457.67
2019-05-15T17:21:36.286Z,100452.53
2019-05-15T17:24:04.262Z,100454.52
2019-05-15T17:26:31.125Z,100452.05
2019-05-15T17:28:58.301Z,100452.11
2019-05-15T17:31:25.066Z,100457.76
2019-05-15T17:33:51.628Z,100449.36
2019-05-15T17:36:18.715Z,100446.59
2019-05-15T17:38:45.436Z,100443.81
2019-05-15T17:41:12.238Z,100440.95
2019-05-15T17:43:38.963Z,100441.07
2019-05-15T17:46:08.696Z,100441.11
2019-05-15T17:48:34.829Z,100446.74
2019-05-15T17:51:01.391Z,100436.85
2019-05-15T17:53:28.827Z,100438.52
2019-05-15T17:55:55.819Z,100435.34
2019-05-15T17:58:22.624Z,100434.06
2019-05-15T18:00:49.400Z,100434.70
2019-05-15T18:03:16.108Z,100431.56
2019-05-15T18:05:42.774Z,100434.39
2019-05-15T18:08:09.459Z,100436.80
2019-05-15T18:10:38.345Z,100433.52
2019-05-15T18:13:04.843Z,100432.63
2019-05-15T18:15:31.940Z,100441.33
2019-05-15T18:17:59.520Z,100439.47
2019-05-15T18:20:29.164Z,100442.05
2019-05-15T18:22:55.375Z,100434.92
2019-05-15T18:25:22.286Z,100437.48
2019-05-15T18:27:48.991Z,100435.97
2019-05-15T18:30:18.148Z,100441.09
2019-05-15T18:32:44.780Z,100440.55
2019-05-15T18:35:11.665Z,100436.20
2019-05-15T18:37:39.316Z,100436.59
2019-05-15T18:40:10.057Z,100438.30
2019-05-15T18:42:38.655Z,100444.39
2019-05-15T18:45:04.889Z,100439.45
2019-05-15T18:47:31.647Z,100440.32
2019-05-15T18:50:05.233Z,100438.09
2019-05-15T18:52:28.747Z,100437.84
2019-05-15T18:54:58.569Z,100432.84
2019-05-15T18:57:24.882Z,100439.61
2019-05-15T18:59:51.678Z,100433.77
2019-05-15T19:02:19.196Z,100434.31
2019-05-15T19:04:46.171Z,100434.73
2019-05-15T19:07:12.924Z,100431.17
2019-05-15T19:09:39.608Z,100442.25
2019-05-15T19:12:09.235Z,100438.98
2019-05-15T19:14:37.026Z,100440.84
2019-05-15T19:17:04.015Z,100471.59
2019-05-15T19:19:30.739Z,100451.70
2019-05-15T19:21:58.246Z,100455.47
2019-05-15T19:24:25.111Z,100399.37
2019-05-15T19:26:51.792Z,100456.64
2019-05-15T19:29:18.682Z,100461.78
2019-05-15T19:31:45.306Z,100458.72
2019-05-15T19:34:12.112Z,100462.95
2019-05-15T19:36:38.796Z,100459.83
2019-05-15T19:39:07.939Z,100465.75
2019-05-15T19:41:34.389Z,100465.09
2019-05-15T19:44:01.096Z,100467.30
2019-05-15T19:46:28.304Z,100461.52
2019-05-15T19:48:55.121Z,100463.56
2019-05-15T19:51:21.806Z,100458.48
2019-05-15T19:53:48.680Z,100454.61
2019-05-15T19:56:15.372Z,100453.11
2019-05-15T19:58:42.161Z,100456.84
2019-05-15T20:01:08.939Z,100457.02
2019-05-15T20:03:47.251Z,100460.56
2019-05-15T20:06:04.235Z,100457.53
2019-05-15T20:08:30.943Z,100455.89
2019-05-15T20:10:59.321Z,100458.58
2019-05-15T20:13:28.855Z,100453.62
2019-05-15T20:15:55.103Z,100456.66
2019-05-15T20:18:21.783Z,100453.62
2019-05-15T20:20:48.437Z,100465.59
2019-05-15T20:23:15.174Z,100459.14
2019-05-15T20:25:41.862Z,100461.28
2019-05-15T20:28:08.612Z,100456.57
2019-05-15T20:30:35.424Z,100463.09
2019-05-15T20:33:02.180Z,100459.78
2019-05-15T20:35:29.141Z,100463.59
2019-05-15T20:37:58.039Z,100460.81
2019-05-15T20:40:24.487Z,100458.01
2019-05-15T20:42:51.246Z,100452.70
2019-05-15T20:45:18.657Z,100462.12
2019-05-15T20:47:45.540Z,100459.41
2019-05-15T20:50:12.437Z,100455.73
2019-05-15T20:52:39.805Z,100461.08
2019-05-15T20:55:08.070Z,100454.59
2019-05-15T20:57:37.602Z,100456.13
2019-05-15T21:00:05.237Z,100453.06
2019-05-15T21:02:31.989Z,100453.62
2019-05-15T21:05:00.638Z,100450.62
2019-05-15T21:07:38.637Z,100447.88
2019-05-15T21:09:58.674Z,100445.56
2019-05-15T21:12:27.060Z,100445.72
2019-05-15T21:14:53.790Z,100440.17
2019-05-15T21:17:20.461Z,100440.41
2019-05-15T21:19:48.949Z,100433.27
2019-05-15T21:22:17.931Z,100430.41
2019-05-15T21:24:44.126Z,100428.09
2019-05-15T21:27:10.827Z,100433.31
2019-05-15T21:29:38.167Z,100435.09
2019-05-15T21:32:08.323Z,100435.11
2019-05-15T21:34:40.713Z,100423.98
2019-05-15T21:37:03.379Z,100423.37
2019-05-15T21:39:30.380Z,100415.12
2019-05-15T21:41:58.325Z,100414.16
2019-05-15T21:44:25.309Z,100416.23
2019-05-15T21:46:51.853Z,100409.50
2019-05-15T21:49:19.179Z,100408.14
2019-05-15T21:51:47.892Z,100407.45
2019-05-15T21:54:14.724Z,100404.98
2019-05-15T21:56:41.623Z,100400.92
2019-05-15T21:59:08.489Z,100402.97
2019-05-15T22:01:35.508Z,100399.47
2019-05-15T22:04:02.286Z,100400.40
2019-05-15T22:06:29.413Z,100400.08
2019-05-15T22:08:58.375Z,100394.38
2019-05-15T22:11:25.145Z,100393.69
2019-05-15T22:13:51.989Z,100396.05
2019-05-15T22:16:19.672Z,100395.09
2019-05-15T22:18:47.845Z,100392.27
2019-05-15T22:21:14.880Z,100388.96
2019-05-15T22:23:41.547Z,100391.59
2019-05-15T22:26:08.344Z,100381.08
2019-05-15T22:28:35.117Z,100387.94
2019-05-15T22:31:02.746Z,100391.58
2019-05-15T22:33:29.767Z,100387.59
2019-05-15T22:35:56.870Z,100380.14
2019-05-15T22:38:25.121Z,100379.28
2019-05-15T22:40:51.894Z,100376.25
2019-05-15T22:43:18.701Z,100373.78
2019-05-15T22:45:45.571Z,100371.09
2019-05-15T22:48:12.323Z,100370.16
2019-05-15T22:50:39.107Z,100367.69
2019-05-15T22:53:05.874Z,100369.94
2019-05-15T22:55:32.643Z,100363.19
2019-05-15T22:58:00.552Z,100370.07
2019-05-15T23:00:28.877Z,100359.42
2019-05-15T23:02:58.004Z,100358.83
2019-05-15T23:05:28.404Z,100363.32
2019-05-15T23:07:53.208Z,100363.91
2019-05-15T23:10:20.234Z,100357.28
2019-05-15T23:12:48.682Z,100353.64
2019-05-15T23:15:15.705Z,100346.55
2019-05-15T23:17:42.365Z,100342.31
2019-05-15T23:20:09.753Z,100342.78
2019-05-15T23:22:38.587Z,100336.49
2019-05-15T23:25:05.734Z,100334.02
2019-05-15T23:27:32.456Z,100338.30
2019-05-15T23:29:59.154Z,100325.17
2019-05-15T23:32:25.839Z,100320.23
2019-05-15T23:34:52.639Z,100313.02
2019-05-15T23:37:19.433Z,100311.97
2019-05-15T23:39:48.556Z,100309.01
2019-05-15T23:42:14.871Z,100304.52
2019-05-15T23:44:41.653Z,100303.81
2019-05-15T23:47:08.339Z,100312.91
2019-05-15T23:49:35.003Z,100304.90
2019-05-15T23:52:01.694Z,100304.06
2019-05-15T23:54:28.376Z,100303.13
2019-05-15T23:56:58.374Z,100264.84
2019-05-15T23:59:25.623Z,100295.92
